createdAt,value
2022-11-05T00:00:41.763Z,9.05
2022-11-05T00:03:27.562Z,9.02
2022-11-05T00:06:19.038Z,9.02
2022-11-05T00:09:06.720Z,9.02
2022-11-05T00:12:03.933Z,9.02
2022-11-05T00:14:47.525Z,9.02
2022-11-05T00:17:16.371Z,8.99
2022-11-05T00:19:44.755Z,8.96
2022-11-05T00:22:32.007Z,8.95
2022-11-05T00:25:18.497Z,8.93
2022-11-05T00:27:51.973Z,8.93
2022-11-05T00:30:22.209Z,8.92
2022-11-05T00:32:55.178Z,8.92
2022-11-05T00:35:24.669Z,8.86
2022-11-05T00:37:55.420Z,8.88
2022-11-05T00:40:25.822Z,8.88
2022-11-05T00:43:13.697Z,8.86
2022-11-05T00:45:42.610Z,8.83
2022-11-05T00:48:30.881Z,8.88
2022-11-05T00:51:00.812Z,8.85
2022-11-05T00:53:30.261Z,8.85
2022-11-05T00:55:58.527Z,8.79
2022-11-05T00:58:30.689Z,8.78
2022-11-05T01:01:03.585Z,8.72
2022-11-05T01:03:33.871Z,8.68
2022-11-05T01:06:08.931Z,8.60
2022-11-05T01:08:38.413Z,8.55
2022-11-05T01:11:33.267Z,8.50
2022-11-05T01:14:02.757Z,8.42
2022-11-05T01:16:30.836Z,8.37
2022-11-05T01:18:59.271Z,8.30
2022-11-05T01:21:28.682Z,8.27
2022-11-05T01:24:00.212Z,8.20
2022-11-05T01:26:29.166Z,8.16
2022-11-05T01:29:01.340Z,8.10
2022-11-05T01:31:29.929Z,8.06
2022-11-05T01:33:58.234Z,7.97
2022-11-05T01:36:26.672Z,7.93
2022-11-05T01:38:54.799Z,7.89
2022-11-05T01:41:25.119Z,7.85
2022-11-05T01:43:57.608Z,7.76
2022-11-05T01:46:28.882Z,7.73
2022-11-05T01:49:02.927Z,7.72
2022-11-05T01:51:34.060Z,7.73
2022-11-05T01:54:04.226Z,7.71
2022-11-05T01:56:36.320Z,7.72
2022-11-05T01:59:07.154Z,7.72
2022-11-05T02:01:35.411Z,7.71
2022-11-05T02:04:11.864Z,7.71
2022-11-05T02:06:46.745Z,7.71
2022-11-05T02:09:21.192Z,7.72
2022-11-05T02:11:51.261Z,7.69
2022-11-05T02:14:20.689Z,7.71
2022-11-05T02:16:56.543Z,7.73
2022-11-05T02:20:03.675Z,7.71
2022-11-05T02:23:10.064Z,7.72
2022-11-05T02:26:05.533Z,7.71
2022-11-05T02:28:55.773Z,7.73
2022-11-05T02:31:28.138Z,7.71
2022-11-05T02:33:57.826Z,7.75
2022-11-05T02:36:52.215Z,7.71
2022-11-05T02:39:30.322Z,7.73
2022-11-05T02:42:05.330Z,7.76
2022-11-05T02:44:38.619Z,7.76
2022-11-05T02:47:17.870Z,7.75
2022-11-05T02:49:53.903Z,7.75
2022-11-05T02:52:41.883Z,7.75
2022-11-05T02:55:19.375Z,7.73
2022-11-05T02:57:48.668Z,7.71
2022-11-05T03:00:45.452Z,7.65
2022-11-05T03:03:28.453Z,7.59
2022-11-05T03:06:13.275Z,7.55
2022-11-05T03:08:52.341Z,7.50
2022-11-05T03:11:25.354Z,7.45
2022-11-05T03:14:03.928Z,7.44
2022-11-05T03:16:35.173Z,7.41
2022-11-05T03:19:10.230Z,7.40
2022-11-05T03:21:45.712Z,7.35
2022-11-05T03:24:17.389Z,7.34
2022-11-05T03:26:52.465Z,7.27
2022-11-05T03:29:25.156Z,7.21
2022-11-05T03:31:55.698Z,7.20
2022-11-05T03:34:35.075Z,7.15
2022-11-05T03:37:03.828Z,7.15
2022-11-05T03:39:38.451Z,7.14
2022-11-05T03:42:10.593Z,7.10
2022-11-05T03:44:41.488Z,7.08
2022-11-05T03:47:12.166Z,7.10
2022-11-05T03:49:45.723Z,7.08
2022-11-05T03:52:18.481Z,7.08
2022-11-05T03:54:47.563Z,7.05
2022-11-05T03:57:19.343Z,7.08
2022-11-05T03:59:51.111Z,7.05
2022-11-05T04:02:23.391Z,7.07
2022-11-05T04:04:53.266Z,7.05
2022-11-05T04:07:39.991Z,6.97
2022-11-05T04:10:27.823Z,6.97
2022-11-05T04:13:14.778Z,6.89
2022-11-05T04:15:57.299Z,6.86
2022-11-05T04:18:25.765Z,6.87
2022-11-05T04:21:13.361Z,6.80
2022-11-05T04:24:05.461Z,6.75
2022-11-05T04:26:34.538Z,6.66
2022-11-05T04:29:23.575Z,6.61
2022-11-05T04:31:52.059Z,6.56
2022-11-05T04:34:22.192Z,6.50
2022-11-05T04:36:52.574Z,6.53
2022-11-05T04:39:25.843Z,6.48
2022-11-05T04:41:54.197Z,6.45
2022-11-05T04:44:22.871Z,6.45
2022-11-05T04:46:50.844Z,6.39
2022-11-05T04:49:21.271Z,6.42
2022-11-05T04:51:51.866Z,6.42
2022-11-05T04:54:20.032Z,6.38
2022-11-05T04:56:48.208Z,6.35
2022-11-05T04:59:18.488Z,6.32
2022-11-05T05:01:47.793Z,6.32
2022-11-05T05:04:16.043Z,6.28
2022-11-05T05:06:48.008Z,6.28
2022-11-05T05:09:21.000Z,6.25
2022-11-05T05:11:51.532Z,6.20
2022-11-05T05:14:19.826Z,6.17
2022-11-05T05:16:49.806Z,6.18
2022-11-05T05:19:19.180Z,6.17
2022-11-05T05:21:46.276Z,6.14
2022-11-05T05:24:17.671Z,6.11
2022-11-05T05:26:48.522Z,6.13
2022-11-05T05:29:21.111Z,6.08
2022-11-05T05:31:49.214Z,6.11
2022-11-05T05:34:18.594Z,6.07
2022-11-05T05:36:49.469Z,6.10
2022-11-05T05:39:21.430Z,6.00
2022-11-05T05:41:50.554Z,6.01
2022-11-05T05:44:19.194Z,6.04
2022-11-05T05:46:48.484Z,6.01
2022-11-05T05:49:18.043Z,6.03
2022-11-05T05:51:46.090Z,6.01
2022-11-05T05:54:15.020Z,6.08
2022-11-05T05:56:48.354Z,6.03
2022-11-05T05:59:16.695Z,6.05
2022-11-05T06:01:46.568Z,6.10
2022-11-05T06:04:17.177Z,6.10
2022-11-05T06:06:47.166Z,6.13
2022-11-05T06:09:17.909Z,6.13
2022-11-05T06:11:50.823Z,6.10
2022-11-05T06:14:20.412Z,6.14
2022-11-05T06:16:51.058Z,6.14
2022-11-05T06:19:19.544Z,6.13
2022-11-05T06:21:49.761Z,6.13
2022-11-05T06:24:18.045Z,6.11
2022-11-05T06:26:47.561Z,6.11
2022-11-05T06:29:16.130Z,6.07
2022-11-05T06:31:44.422Z,6.08
2022-11-05T06:34:13.926Z,6.10
2022-11-05T06:36:43.113Z,6.08
2022-11-05T06:39:12.069Z,6.07
2022-11-05T06:44:35.038Z,6.14
2022-11-05T06:47:03.207Z,6.22
2022-11-05T06:49:31.419Z,6.24
2022-11-05T06:51:59.513Z,6.26
2022-11-05T06:54:30.569Z,6.31
2022-11-05T06:56:59.106Z,6.38
2022-11-05T06:59:28.268Z,6.38
2022-11-05T07:02:02.185Z,6.46
2022-11-05T07:04:33.051Z,6.48
2022-11-05T07:07:04.264Z,6.46
2022-11-05T07:09:38.594Z,6.49
2022-11-05T07:12:09.237Z,6.52
2022-11-05T07:14:38.626Z,6.53
2022-11-05T07:17:11.097Z,6.55
2022-11-05T07:19:40.839Z,6.57
2022-11-05T07:22:10.797Z,6.59
2022-11-05T07:24:40.084Z,6.59
2022-11-05T07:27:40.129Z,6.62
2022-11-05T07:30:13.573Z,6.68
2022-11-05T07:32:43.680Z,6.76
2022-11-05T07:35:12.018Z,6.76
2022-11-05T07:37:45.414Z,6.79
2022-11-05T07:40:16.073Z,6.83
2022-11-05T07:42:46.204Z,6.86
2022-11-05T07:45:15.280Z,7.05
2022-11-05T07:47:48.880Z,7.32
2022-11-05T07:50:20.959Z,7.63
2022-11-05T07:52:58.035Z,7.97
2022-11-05T07:55:26.205Z,8.30
2022-11-05T07:57:54.802Z,8.50
2022-11-05T08:00:24.098Z,8.67
2022-11-05T08:03:08.081Z,8.78
2022-11-05T08:05:44.625Z,8.96
2022-11-05T08:08:15.456Z,8.98
2022-11-05T08:10:44.179Z,9.02
2022-11-05T08:13:14.333Z,9.12
2022-11-05T08:15:45.032Z,9.18
2022-11-05T08:18:21.434Z,9.19
2022-11-05T08:20:49.696Z,9.20
2022-11-05T08:23:19.089Z,9.20
2022-11-05T08:25:48.288Z,9.26
2022-11-05T08:28:17.487Z,9.30
2022-11-05T08:30:52.752Z,9.33
2022-11-05T08:33:25.975Z,9.37
2022-11-05T08:35:56.403Z,9.46
2022-11-05T08:38:24.401Z,9.60
2022-11-05T08:40:58.999Z,9.79
2022-11-05T08:43:27.343Z,10.05
2022-11-05T08:45:55.948Z,10.32
2022-11-05T08:48:29.211Z,10.57
2022-11-05T08:50:57.333Z,10.94
2022-11-05T08:53:25.562Z,11.24
2022-11-05T08:56:00.467Z,11.46
2022-11-05T08:58:29.429Z,11.67
2022-11-05T09:01:04.453Z,11.79
2022-11-05T09:03:35.481Z,11.91
2022-11-05T09:06:04.018Z,12.05
2022-11-05T09:08:32.507Z,12.14
2022-11-05T09:11:01.231Z,12.25
2022-11-05T09:13:32.594Z,12.45
2022-11-05T09:16:01.079Z,12.61
2022-11-05T09:18:31.266Z,12.76
2022-11-05T09:21:03.836Z,12.89
2022-11-05T09:23:32.753Z,12.89
2022-11-05T09:26:02.146Z,12.91
2022-11-05T09:28:35.294Z,12.99
2022-11-05T09:31:07.046Z,13.13
2022-11-05T09:33:36.395Z,13.27
2022-11-05T09:36:09.264Z,13.44
2022-11-05T09:38:38.545Z,13.52
2022-11-05T09:41:09.852Z,13.70
2022-11-05T09:43:40.909Z,13.72
2022-11-05T09:46:17.449Z,13.82
2022-11-05T09:48:49.163Z,13.96
2022-11-05T09:51:24.267Z,14.10
2022-11-05T09:53:53.856Z,14.17
2022-11-05T09:56:26.594Z,14.20
2022-11-05T09:58:59.366Z,14.30
2022-11-05T10:01:31.899Z,14.31
2022-11-05T10:04:13.717Z,14.48
2022-11-05T10:06:47.268Z,14.65
2022-11-05T10:09:22.747Z,14.71
2022-11-05T10:11:54.444Z,14.81
2022-11-05T10:14:25.454Z,14.85
2022-11-05T10:16:58.899Z,14.86
2022-11-05T10:19:38.688Z,14.81
2022-11-05T10:22:18.630Z,14.75
2022-11-05T10:24:48.749Z,14.71
2022-11-05T10:27:22.179Z,14.78
2022-11-05T10:29:52.424Z,14.84
2022-11-05T10:32:27.556Z,14.88
2022-11-05T10:34:57.735Z,14.92
2022-11-05T10:37:28.570Z,15.00
2022-11-05T10:39:57.779Z,15.09
2022-11-05T10:42:36.491Z,15.16
2022-11-05T10:45:20.465Z,15.23
2022-11-05T10:48:07.623Z,15.29
2022-11-05T10:50:39.490Z,15.33
2022-11-05T10:53:17.736Z,15.29
2022-11-05T10:55:50.700Z,15.30
2022-11-05T10:58:26.872Z,15.27
2022-11-05T11:01:11.679Z,15.00
2022-11-05T11:03:45.478Z,14.91
2022-11-05T11:06:21.634Z,14.99
2022-11-05T11:09:03.788Z,15.06
2022-11-05T11:11:34.968Z,15.00
2022-11-05T11:14:07.455Z,14.91
2022-11-05T11:16:38.763Z,14.79
2022-11-05T11:19:26.777Z,14.88
2022-11-05T11:22:22.351Z,14.89
2022-11-05T11:24:54.768Z,14.84
2022-11-05T11:27:24.617Z,14.85
2022-11-05T11:30:00.324Z,14.85
2022-11-05T11:32:35.006Z,14.69
2022-11-05T11:35:06.067Z,14.54
2022-11-05T11:37:37.257Z,14.31
2022-11-05T11:40:22.897Z,14.03
2022-11-05T11:42:56.522Z,13.79
2022-11-05T11:45:29.174Z,13.75
2022-11-05T11:47:58.026Z,13.85
2022-11-05T11:50:43.622Z,13.96
2022-11-05T11:53:37.718Z,14.07
2022-11-05T11:56:18.309Z,14.13
2022-11-05T11:58:48.479Z,14.14
2022-11-05T12:01:48.528Z,14.14
2022-11-05T12:04:30.210Z,14.05
2022-11-05T12:07:12.250Z,14.03
2022-11-05T12:09:57.827Z,14.03
2022-11-05T12:12:35.591Z,13.96
2022-11-05T12:15:22.458Z,13.85
2022-11-05T12:17:55.368Z,13.82
2022-11-05T12:20:40.568Z,13.83
2022-11-05T12:23:20.707Z,13.75
2022-11-05T12:25:56.266Z,13.61
2022-11-05T12:29:16.596Z,13.51
2022-11-05T12:31:46.967Z,13.44
2022-11-05T12:34:26.489Z,13.42
2022-11-05T12:37:05.783Z,13.40
2022-11-05T12:39:45.046Z,13.40
2022-11-05T12:42:24.367Z,13.32
2022-11-05T12:45:01.758Z,13.27
2022-11-05T12:47:43.633Z,13.23
2022-11-05T12:50:18.019Z,13.20
2022-11-05T12:52:59.779Z,13.16
2022-11-05T12:55:30.575Z,13.16
2022-11-05T12:58:03.930Z,13.16
2022-11-05T13:00:33.562Z,13.16
2022-11-05T13:03:22.217Z,13.20
2022-11-05T13:05:59.133Z,13.19
2022-11-05T13:08:36.756Z,13.17
2022-11-05T13:11:20.114Z,13.16
2022-11-05T13:13:57.479Z,13.07
2022-11-05T13:16:34.563Z,12.99
2022-11-05T13:19:08.488Z,12.87
2022-11-05T13:21:37.737Z,12.77
2022-11-05T13:24:10.214Z,12.69
2022-11-05T13:26:42.895Z,12.53
2022-11-05T13:29:20.107Z,12.38
2022-11-05T13:31:54.661Z,12.24
2022-11-05T13:34:25.028Z,12.15
2022-11-05T13:37:15.400Z,12.05
2022-11-05T13:39:47.380Z,11.98
2022-11-05T13:42:39.633Z,11.93
2022-11-05T13:45:27.217Z,11.87
2022-11-05T13:48:12.382Z,11.93
2022-11-05T13:51:07.676Z,11.94
2022-11-05T13:53:50.955Z,11.93
2022-11-05T13:56:25.493Z,11.90
2022-11-05T13:59:21.583Z,11.83
2022-11-05T14:01:55.847Z,11.80
2022-11-05T14:04:34.191Z,11.84
2022-11-05T14:07:13.429Z,11.82
2022-11-05T14:09:47.582Z,11.83
2022-11-05T14:12:21.911Z,11.87
2022-11-05T14:14:58.936Z,11.90
2022-11-05T14:17:40.026Z,11.95
2022-11-05T14:20:47.631Z,11.98
2022-11-05T14:23:52.370Z,11.97
2022-11-05T14:26:23.795Z,11.93
2022-11-05T14:29:24.038Z,11.90
2022-11-05T14:32:08.823Z,11.87
2022-11-05T14:34:45.432Z,11.77
2022-11-05T14:37:33.908Z,11.69
2022-11-05T14:40:26.852Z,11.66
2022-11-05T14:42:56.372Z,11.63
2022-11-05T14:45:33.455Z,11.57
2022-11-05T14:48:03.192Z,11.50
2022-11-05T14:50:36.092Z,11.42
2022-11-05T14:53:27.577Z,11.31
2022-11-05T14:56:02.541Z,11.21
2022-11-05T14:58:36.434Z,11.07
2022-11-05T15:01:06.865Z,10.95
2022-11-05T15:04:01.049Z,10.83
2022-11-05T15:06:42.223Z,10.73
2022-11-05T15:09:30.932Z,10.60
2022-11-05T15:12:19.804Z,10.47
2022-11-05T15:14:57.229Z,10.34
2022-11-05T15:17:30.197Z,10.22
2022-11-05T15:20:08.202Z,10.08
2022-11-05T15:22:38.686Z,10.01
2022-11-05T15:25:17.287Z,9.94
2022-11-05T15:27:55.992Z,9.88
2022-11-05T15:30:25.676Z,9.81
2022-11-05T15:32:54.211Z,9.71
2022-11-05T15:35:27.018Z,9.65
2022-11-05T15:38:02.149Z,9.58
2022-11-05T15:40:34.215Z,9.47
2022-11-05T15:43:21.744Z,9.39
2022-11-05T15:46:06.517Z,9.26
2022-11-05T15:48:35.600Z,9.20
2022-11-05T15:51:04.507Z,9.10
2022-11-05T15:56:37.535Z,8.86
2022-11-05T15:59:07.911Z,8.82
2022-11-05T16:01:38.034Z,8.75
2022-11-05T16:04:15.140Z,8.75
2022-11-05T16:06:44.450Z,8.82
2022-11-05T16:09:22.835Z,8.79
2022-11-05T16:12:12.756Z,8.75
2022-11-05T16:14:41.390Z,8.72
2022-11-05T16:17:22.081Z,8.72
2022-11-05T16:19:50.755Z,8.71
2022-11-05T16:22:19.310Z,8.71
2022-11-05T16:24:47.882Z,8.68
2022-11-05T16:27:20.023Z,8.62
2022-11-05T16:29:51.028Z,8.57
2022-11-05T16:32:26.893Z,8.51
2022-11-05T16:34:59.600Z,8.44
2022-11-05T16:37:28.457Z,8.37
2022-11-05T16:39:57.059Z,8.31
2022-11-05T16:42:38.864Z,8.27
2022-11-05T16:45:14.832Z,8.20
2022-11-05T16:47:44.830Z,8.17
2022-11-05T16:50:18.918Z,8.09
2022-11-05T16:52:47.994Z,7.99
2022-11-05T16:55:20.725Z,7.96
2022-11-05T16:57:52.740Z,7.86
2022-11-05T17:00:22.238Z,7.82
2022-11-05T17:02:51.244Z,7.76
2022-11-05T17:05:22.511Z,7.72
2022-11-05T17:07:51.977Z,7.69
2022-11-05T17:10:21.232Z,7.71
2022-11-05T17:12:54.954Z,7.75
2022-11-05T17:15:27.081Z,7.81
2022-11-05T17:17:57.829Z,7.83
2022-11-05T17:20:38.319Z,7.79
2022-11-05T17:23:12.158Z,7.75
2022-11-05T17:25:45.227Z,7.79
2022-11-05T17:28:16.462Z,7.86
2022-11-05T17:30:52.289Z,7.85
2022-11-05T17:33:26.046Z,7.78
2022-11-05T17:35:59.511Z,7.78
2022-11-05T17:41:22.469Z,7.65
2022-11-05T17:43:58.752Z,7.59
2022-11-05T17:46:29.445Z,7.62
2022-11-05T17:48:58.456Z,7.59
2022-11-05T17:51:27.806Z,7.54
2022-11-05T17:53:56.092Z,7.48
2022-11-05T17:56:34.128Z,7.42
2022-11-05T17:59:04.692Z,7.40
2022-11-05T18:01:35.757Z,7.38
2022-11-05T18:04:09.334Z,7.41
2022-11-05T18:06:38.263Z,7.34
2022-11-05T18:09:08.564Z,7.32
2022-11-05T18:11:37.492Z,7.32
2022-11-05T18:14:09.814Z,7.28
2022-11-05T18:16:37.708Z,7.28
2022-11-05T18:19:07.312Z,7.27
2022-11-05T18:21:35.721Z,7.25
2022-11-05T18:24:04.614Z,7.17
2022-11-05T18:26:33.829Z,7.14
2022-11-05T18:29:02.427Z,7.10
2022-11-05T18:31:34.372Z,7.07
2022-11-05T18:34:02.892Z,7.10
2022-11-05T18:36:33.752Z,7.05
2022-11-05T18:39:05.627Z,7.10
2022-11-05T18:41:36.320Z,7.05
2022-11-05T18:44:12.814Z,7.01
2022-11-05T18:46:57.745Z,7.01
2022-11-05T18:49:29.924Z,6.99
2022-11-05T18:52:00.053Z,6.97
2022-11-05T18:54:31.971Z,6.99
2022-11-05T18:57:07.858Z,6.94
2022-11-05T18:59:42.104Z,6.92
2022-11-05T19:02:16.477Z,6.89
2022-11-05T19:05:13.905Z,6.84
2022-11-05T19:07:37.467Z,6.80
2022-11-05T19:10:06.505Z,6.77
2022-11-05T19:12:35.388Z,6.77
2022-11-05T19:15:04.884Z,6.77
2022-11-05T19:17:36.616Z,6.75
2022-11-05T19:20:09.753Z,6.72
2022-11-05T19:22:38.188Z,6.71
2022-11-05T19:25:13.706Z,6.71
2022-11-05T19:27:44.050Z,6.65
2022-11-05T19:30:12.756Z,6.61
2022-11-05T19:32:47.474Z,6.61
2022-11-05T19:35:15.944Z,6.57
2022-11-05T19:37:45.497Z,6.57
2022-11-05T19:40:13.974Z,6.57
2022-11-05T19:42:42.151Z,6.56
2022-11-05T19:45:38.740Z,6.50
2022-11-05T19:48:05.191Z,6.45
2022-11-05T19:50:33.604Z,6.41
2022-11-05T19:53:02.762Z,6.35
2022-11-05T19:55:31.790Z,6.34
2022-11-05T19:58:00.285Z,6.36
2022-11-05T20:00:30.100Z,6.44
2022-11-05T20:02:59.564Z,6.48
2022-11-05T20:05:31.790Z,6.49
2022-11-05T20:07:59.882Z,6.50
2022-11-05T20:10:29.339Z,6.56
2022-11-05T20:12:58.750Z,6.55
2022-11-05T20:15:26.780Z,6.53
2022-11-05T20:17:55.162Z,6.48
2022-11-05T20:20:23.896Z,6.44
2022-11-05T20:22:55.936Z,6.39
2022-11-05T20:25:24.122Z,6.34
2022-11-05T20:27:53.127Z,6.29
2022-11-05T20:30:23.443Z,6.24
2022-11-05T20:32:57.216Z,6.17
2022-11-05T20:35:27.483Z,6.08
2022-11-05T20:37:57.514Z,6.04
2022-11-05T20:40:25.831Z,5.98
2022-11-05T20:42:54.868Z,5.95
2022-11-05T20:45:23.697Z,5.90
2022-11-05T20:47:53.726Z,5.86
2022-11-05T20:50:23.433Z,5.83
2022-11-05T20:52:54.173Z,5.76
2022-11-05T20:55:25.586Z,5.73
2022-11-05T20:57:53.838Z,5.69
2022-11-05T21:00:22.632Z,5.69
2022-11-05T21:02:52.227Z,5.65
2022-11-05T21:05:21.965Z,5.66
2022-11-05T21:07:50.323Z,5.62
2022-11-05T21:10:19.373Z,5.62
2022-11-05T21:12:48.660Z,5.65
2022-11-05T21:15:20.241Z,5.63
2022-11-05T21:17:48.226Z,5.60
2022-11-05T21:20:16.544Z,5.62
2022-11-05T21:22:45.744Z,5.57
2022-11-05T21:25:14.194Z,5.56
2022-11-05T21:27:43.678Z,5.52
2022-11-05T21:30:15.376Z,5.53
2022-11-05T21:32:43.983Z,5.49
2022-11-05T21:35:12.035Z,5.49
2022-11-05T21:37:40.237Z,5.47
2022-11-05T21:40:10.971Z,5.46
2022-11-05T21:42:39.381Z,5.47
2022-11-05T21:45:08.174Z,5.43
2022-11-05T21:47:38.075Z,5.45
2022-11-05T21:50:06.932Z,5.46
2022-11-05T21:52:52.896Z,5.47
2022-11-05T21:55:53.156Z,5.52
2022-11-05T21:58:39.102Z,5.52
2022-11-05T22:01:07.186Z,5.50
2022-11-05T22:03:47.776Z,5.52
2022-11-05T22:06:17.555Z,5.50
2022-11-05T22:08:46.067Z,5.55
2022-11-05T22:11:14.260Z,5.55
2022-11-05T22:13:42.455Z,5.59
2022-11-05T22:16:10.420Z,5.55
2022-11-05T22:18:39.926Z,5.59
2022-11-05T22:21:08.555Z,5.55
2022-11-05T22:23:36.597Z,5.59
2022-11-05T22:26:04.806Z,5.56
2022-11-05T22:28:33.230Z,5.59
2022-11-05T22:31:02.778Z,5.63
2022-11-05T22:33:32.341Z,5.65
2022-11-05T22:36:02.414Z,5.65
2022-11-05T22:38:31.428Z,5.65
2022-11-05T22:41:00.067Z,5.67
2022-11-05T22:43:29.443Z,5.67
2022-11-05T22:46:00.187Z,5.67
2022-11-05T22:48:28.266Z,5.69
2022-11-05T22:50:58.983Z,5.74
2022-11-05T22:53:29.132Z,5.76
2022-11-05T22:55:59.813Z,5.78
2022-11-05T22:58:28.186Z,5.82
2022-11-05T23:00:56.197Z,5.86
2022-11-05T23:03:25.622Z,5.89
2022-11-05T23:05:58.979Z,5.89
2022-11-05T23:08:46.881Z,5.93
2022-11-05T23:11:35.014Z,5.94
2022-11-05T23:14:04.220Z,5.95
2022-11-05T23:16:58.580Z,5.93
2022-11-05T23:19:45.614Z,5.90
2022-11-05T23:22:32.378Z,5.89
2022-11-05T23:25:02.072Z,5.86
2022-11-05T23:27:31.494Z,5.87
2022-11-05T23:30:01.389Z,5.87
2022-11-05T23:32:30.846Z,5.87
2022-11-05T23:35:00.293Z,5.86
2022-11-05T23:37:47.771Z,5.86
2022-11-05T23:40:18.894Z,5.83
2022-11-05T23:43:05.376Z,5.80
2022-11-05T23:45:51.946Z,5.77
2022-11-05T23:48:23.266Z,5.73
2022-11-05T23:50:53.806Z,5.73
2022-11-05T23:53:21.865Z,5.67
2022-11-05T23:55:51.711Z,5.63
2022-11-05T23:58:20.092Z,5.66
